createdAt,value
2018-01-29T00:00:03.540Z,101901.38
2018-01-29T00:02:29.295Z,101893.42
2018-01-29T00:04:55.053Z,101900.92
2018-01-29T00:07:20.809Z,101900.92
2018-01-29T00:09:46.571Z,101896.98
2018-01-29T00:12:12.335Z,101889.05
2018-01-29T00:14:38.103Z,101890.80
2018-01-29T00:17:03.871Z,101899.60
2018-01-29T00:19:29.639Z,101890.38
2018-01-29T00:21:55.405Z,101896.09
2018-01-29T00:24:21.172Z,101889.96
2018-01-29T00:26:46.951Z,101889.05
2018-01-29T00:29:12.707Z,101890.38
2018-01-29T00:31:38.484Z,101900.95
2018-01-29T00:34:04.256Z,101890.39
2018-01-29T00:36:30.020Z,101888.16
2018-01-29T00:38:55.785Z,101878.91
2018-01-29T00:41:21.547Z,101871.88
2018-01-29T00:43:47.300Z,101871.86
2018-01-29T00:46:13.054Z,101865.69
2018-01-29T00:48:38.826Z,101856.89
2018-01-29T00:51:04.599Z,101862.16
2018-01-29T00:53:30.371Z,101862.59
2018-01-29T00:55:56.159Z,101858.62
2018-01-29T00:58:21.924Z,101859.93
2018-01-29T01:00:47.692Z,101866.52
2018-01-29T01:03:13.464Z,101870.05
2018-01-29T01:05:39.227Z,101865.62
2018-01-29T01:08:04.992Z,101870.45
2018-01-29T01:10:30.760Z,101860.76
2018-01-29T01:12:56.506Z,101865.59
2018-01-29T01:15:22.262Z,101870.46
2018-01-29T01:17:48.011Z,101862.53
2018-01-29T01:20:13.781Z,101863.86
2018-01-29T01:22:39.552Z,101865.16
2018-01-29T01:25:05.328Z,101863.81
2018-01-29T01:27:31.094Z,101866.48
2018-01-29T01:29:56.891Z,101859.41
2018-01-29T01:32:22.651Z,101859.84
2018-01-29T01:34:48.429Z,101838.69
2018-01-29T01:37:14.191Z,101839.09
2018-01-29T01:39:39.982Z,101835.14
2018-01-29T01:42:05.760Z,101832.96
2018-01-29T01:44:31.523Z,101819.77
2018-01-29T01:46:57.294Z,101827.64
2018-01-29T01:49:29.264Z,101825.88
2018-01-29T01:51:55.043Z,101820.18
2018-01-29T01:54:20.824Z,101815.34
2018-01-29T01:56:46.597Z,101817.58
2018-01-29T01:59:12.371Z,101806.13
2018-01-29T02:01:38.147Z,101812.34
2018-01-29T02:04:03.920Z,101806.17
2018-01-29T02:06:29.703Z,101807.46
2018-01-29T02:08:55.467Z,101811.00
2018-01-29T02:11:21.241Z,101807.94
2018-01-29T02:13:47.015Z,101802.67
2018-01-29T02:16:12.802Z,101797.38
2018-01-29T02:18:38.564Z,101795.60
2018-01-29T02:21:04.326Z,101796.06
2018-01-29T02:23:30.087Z,101780.62
2018-01-29T02:25:55.844Z,101785.02
2018-01-29T02:28:21.619Z,101790.28
2018-01-29T02:30:47.416Z,101790.75
2018-01-29T02:33:13.207Z,101782.41
2018-01-29T02:35:38.966Z,101781.52
2018-01-29T02:38:04.744Z,101774.02
2018-01-29T02:40:30.518Z,101774.05
2018-01-29T02:42:56.313Z,101764.36
2018-01-29T02:45:22.095Z,101752.49
2018-01-29T02:47:47.884Z,101758.20
2018-01-29T02:50:13.660Z,101755.56
2018-01-29T02:52:39.465Z,101741.45
2018-01-29T02:55:05.240Z,101733.11
2018-01-29T02:57:31.035Z,101729.13
2018-01-29T02:59:56.815Z,101738.83
2018-01-29T03:02:22.587Z,101729.58
2018-01-29T03:04:48.373Z,101727.38
2018-01-29T03:07:14.147Z,101710.62
2018-01-29T03:09:39.939Z,101714.13
2018-01-29T03:12:05.716Z,101707.55
2018-01-29T03:14:31.505Z,101698.27
2018-01-29T03:16:57.275Z,101691.63
2018-01-29T03:19:23.046Z,101692.50
2018-01-29T03:21:48.820Z,101691.61
2018-01-29T03:24:14.591Z,101692.47
2018-01-29T03:26:40.363Z,101697.73
2018-01-29T03:29:06.148Z,101701.70
2018-01-29T03:31:31.911Z,101695.55
2018-01-29T03:33:57.680Z,101698.55
2018-01-29T03:36:23.443Z,101697.71
2018-01-29T03:38:49.214Z,101706.03
2018-01-29T03:41:14.974Z,101682.22
2018-01-29T03:43:40.744Z,101695.91
2018-01-29T03:46:06.530Z,101683.60
2018-01-29T03:48:32.304Z,101679.98
2018-01-29T03:50:58.066Z,101684.91
2018-01-29T03:53:23.832Z,101681.45
2018-01-29T03:55:49.575Z,101685.30
2018-01-29T03:58:15.323Z,101681.80
2018-01-29T04:00:41.102Z,101668.53
2018-01-29T04:03:06.869Z,101672.03
2018-01-29T04:05:32.656Z,101655.84
2018-01-29T04:07:58.427Z,101662.92
2018-01-29T04:10:24.209Z,101666.03
2018-01-29T04:12:49.973Z,101661.60
2018-01-29T04:15:15.775Z,101654.08
2018-01-29T04:17:41.546Z,101652.34
2018-01-29T04:20:07.340Z,101662.08
2018-01-29T04:22:33.113Z,101652.28
2018-01-29T04:24:58.893Z,101625.58
2018-01-29T04:27:24.724Z,101633.48
2018-01-29T04:29:50.512Z,101637.81
2018-01-29T04:32:16.275Z,101630.03
2018-01-29T04:34:42.065Z,101626.91
2018-01-29T04:37:07.843Z,101646.26
2018-01-29T04:39:33.604Z,101636.64
2018-01-29T04:41:59.377Z,101637.53
2018-01-29T04:44:25.158Z,101622.96
2018-01-29T04:46:50.942Z,101617.80
2018-01-29T04:49:16.699Z,101614.53
2018-01-29T04:51:42.460Z,101595.65
2018-01-29T04:54:08.207Z,101583.75
2018-01-29T04:56:36.975Z,101598.31
2018-01-29T04:59:02.745Z,101591.84
2018-01-29T05:01:28.512Z,101586.11
2018-01-29T05:03:54.277Z,101589.20
2018-01-29T05:06:20.040Z,101586.51
2018-01-29T05:08:45.800Z,101579.45
2018-01-29T05:11:11.554Z,101570.66
2018-01-29T05:13:37.301Z,101575.86
2018-01-29T05:16:03.060Z,101579.48
2018-01-29T05:18:28.819Z,101570.67
2018-01-29T05:20:54.579Z,101575.95
2018-01-29T05:23:20.327Z,101563.67
2018-01-29T05:25:46.103Z,101553.94
2018-01-29T05:28:11.847Z,101561.88
2018-01-29T05:30:37.631Z,101537.25
2018-01-29T05:33:03.393Z,101545.18
2018-01-29T05:35:29.935Z,101554.41
2018-01-29T05:40:57.235Z,101547.82
2018-01-29T05:43:22.999Z,101548.63
2018-01-29T05:45:48.771Z,101538.64
2018-01-29T05:48:14.557Z,101551.33
2018-01-29T05:50:40.315Z,101538.63
2018-01-29T05:53:06.067Z,101545.20
2018-01-29T05:55:31.823Z,101555.70
2018-01-29T05:57:57.603Z,101556.27
2018-01-29T06:00:23.360Z,101545.25
2018-01-29T06:02:49.112Z,101553.98
2018-01-29T06:05:14.873Z,101552.27
2018-01-29T06:07:40.631Z,101547.00
2018-01-29T06:10:06.383Z,101565.48
2018-01-29T06:12:32.136Z,101556.28
2018-01-29T06:14:57.880Z,101556.30
2018-01-29T06:17:23.653Z,101547.47
2018-01-29T06:19:49.388Z,101548.76
2018-01-29T06:22:15.143Z,101541.38
2018-01-29T06:24:40.895Z,101536.55
2018-01-29T06:27:06.650Z,101533.94
2018-01-29T06:29:32.407Z,101537.83
2018-01-29T06:31:58.166Z,101518.49
2018-01-29T06:34:23.952Z,101531.73
2018-01-29T06:36:49.719Z,101501.75
2018-01-29T06:39:15.479Z,101527.30
2018-01-29T06:41:41.214Z,101519.83
2018-01-29T06:44:06.970Z,101514.98
2018-01-29T06:46:32.715Z,101523.42
2018-01-29T06:48:58.483Z,101506.13
2018-01-29T06:51:24.245Z,101494.77
2018-01-29T06:53:50.023Z,101507.50
2018-01-29T06:56:16.639Z,101498.66
2018-01-29T06:58:42.394Z,101501.24
2018-01-29T07:01:08.148Z,101490.29
2018-01-29T07:03:33.895Z,101493.42
2018-01-29T07:05:59.635Z,101500.01
2018-01-29T07:08:25.403Z,101489.77
2018-01-29T07:10:51.154Z,101498.23
2018-01-29T07:13:16.912Z,101496.08
2018-01-29T07:15:42.667Z,101492.07
2018-01-29T07:18:08.424Z,101482.34
2018-01-29T07:20:34.175Z,101471.39
2018-01-29T07:22:59.919Z,101472.68
2018-01-29T07:25:25.665Z,101462.98
2018-01-29T07:27:51.420Z,101478.02
2018-01-29T07:30:17.202Z,101468.66
2018-01-29T07:32:42.967Z,101465.20
2018-01-29T07:35:08.734Z,101471.36
2018-01-29T07:37:34.505Z,101469.63
2018-01-29T07:40:00.267Z,101454.75
2018-01-29T07:42:26.025Z,101458.69
2018-01-29T07:44:51.792Z,101463.88
2018-01-29T07:47:17.560Z,101464.35
2018-01-29T07:49:43.343Z,101453.33
2018-01-29T07:52:09.106Z,101452.89
2018-01-29T07:54:34.877Z,101455.56
2018-01-29T07:57:00.652Z,101456.08
2018-01-29T07:59:26.436Z,101456.09
2018-01-29T08:01:52.207Z,101426.19
2018-01-29T08:04:17.983Z,101434.60
2018-01-29T08:06:43.756Z,101434.48
2018-01-29T08:09:09.519Z,101427.52
2018-01-29T08:11:35.292Z,101408.52
2018-01-29T08:14:01.065Z,101395.69
2018-01-29T08:16:26.869Z,101418.08
2018-01-29T08:18:52.623Z,101395.61
2018-01-29T08:21:18.401Z,101399.64
2018-01-29T08:23:44.163Z,101392.16
2018-01-29T08:26:09.944Z,101400.02
2018-01-29T08:28:35.719Z,101382.28
2018-01-29T08:31:01.500Z,101388.15
2018-01-29T08:33:27.264Z,101382.26
2018-01-29T08:35:53.105Z,101382.20
2018-01-29T08:38:18.843Z,101373.94
2018-01-29T08:40:44.651Z,101378.68
2018-01-29T08:43:10.424Z,101359.79
2018-01-29T08:45:36.204Z,101380.91
2018-01-29T08:48:01.978Z,101374.20
2018-01-29T08:50:27.744Z,101365.39
2018-01-29T08:52:53.522Z,101357.36
2018-01-29T08:55:19.285Z,101350.04
2018-01-29T08:57:45.060Z,101359.75
2018-01-29T09:00:10.832Z,101358.84
2018-01-29T09:02:36.620Z,101366.81
2018-01-29T09:05:02.387Z,101365.91
2018-01-29T09:07:28.167Z,101355.74
2018-01-29T09:09:53.933Z,101357.04
2018-01-29T09:12:19.716Z,101344.25
2018-01-29T09:14:45.488Z,101344.36
2018-01-29T09:17:11.244Z,101352.34
2018-01-29T09:19:37.008Z,101339.25
2018-01-29T09:22:02.780Z,101352.95
2018-01-29T09:24:28.557Z,101345.63
2018-01-29T09:26:54.327Z,101351.46
2018-01-29T09:29:20.119Z,101327.39
2018-01-29T09:31:45.876Z,101341.96
2018-01-29T09:34:11.633Z,101346.83
2018-01-29T09:36:37.384Z,101344.27
2018-01-29T09:39:03.168Z,101349.58
2018-01-29T09:41:28.920Z,101356.25
2018-01-29T09:43:54.684Z,101344.38
2018-01-29T09:46:20.456Z,101352.77
2018-01-29T09:48:46.231Z,101348.84
2018-01-29T09:51:11.979Z,101345.34
2018-01-29T09:53:37.751Z,101348.92
2018-01-29T09:56:03.516Z,101354.19
2018-01-29T09:58:29.292Z,101348.95
2018-01-29T10:00:55.052Z,101344.98
2018-01-29T10:03:20.813Z,101323.02
2018-01-29T10:05:46.609Z,101343.27
2018-01-29T10:08:12.368Z,101336.67
2018-01-29T10:10:38.127Z,101340.66
2018-01-29T10:13:03.883Z,101346.35
2018-01-29T10:15:29.635Z,101348.09
2018-01-29T10:17:55.381Z,101347.20
2018-01-29T10:20:21.143Z,101349.86
2018-01-29T10:22:46.907Z,101344.55
2018-01-29T10:25:12.667Z,101342.33
2018-01-29T10:27:38.423Z,101346.23
2018-01-29T10:30:04.199Z,101347.56
2018-01-29T10:32:29.955Z,101359.00
2018-01-29T10:34:55.716Z,101349.31
2018-01-29T10:37:21.483Z,101332.15
2018-01-29T10:39:47.241Z,101348.42
2018-01-29T10:42:12.995Z,101338.75
2018-01-29T10:44:38.740Z,101338.71
2018-01-29T10:47:04.499Z,101332.60
2018-01-29T10:49:30.242Z,101333.47
2018-01-29T10:51:56.023Z,101340.49
2018-01-29T10:54:21.786Z,101336.52
2018-01-29T10:56:47.549Z,101322.03
2018-01-29T10:59:13.311Z,101320.27
2018-01-29T11:01:45.230Z,101326.00
2018-01-29T11:04:11.004Z,101339.19
2018-01-29T11:06:36.751Z,101324.28
2018-01-29T11:09:02.507Z,101336.62
2018-01-29T11:11:28.262Z,101337.06
2018-01-29T11:13:54.003Z,101323.92
2018-01-29T11:16:19.747Z,101333.58
2018-01-29T11:18:45.514Z,101317.33
2018-01-29T11:21:11.283Z,101320.83
2018-01-29T11:23:37.044Z,101322.59
2018-01-29T11:26:02.799Z,101324.81
2018-01-29T11:28:28.555Z,101330.09
2018-01-29T11:30:54.324Z,101309.38
2018-01-29T11:33:20.095Z,101312.45
2018-01-29T11:35:45.856Z,101309.34
2018-01-29T11:38:11.617Z,101297.44
2018-01-29T11:40:37.379Z,101296.56
2018-01-29T11:43:03.159Z,101297.41
2018-01-29T11:45:28.921Z,101292.52
2018-01-29T11:47:54.684Z,101291.66
2018-01-29T11:50:20.445Z,101277.99
2018-01-29T11:52:46.205Z,101253.37
2018-01-29T11:55:11.969Z,101274.03
2018-01-29T11:57:37.749Z,101279.78
2018-01-29T12:00:03.517Z,101257.37
2018-01-29T12:02:29.274Z,101268.78
2018-01-29T12:04:55.043Z,101265.73
2018-01-29T12:07:20.848Z,101272.34
2018-01-29T12:09:46.595Z,101264.01
2018-01-29T12:12:12.356Z,101264.03
2018-01-29T12:14:38.136Z,101259.63
2018-01-29T12:17:03.909Z,101248.62
2018-01-29T12:19:29.679Z,101247.78
2018-01-29T12:21:55.454Z,101247.33
2018-01-29T12:24:21.236Z,101250.84
2018-01-29T12:26:47.000Z,101252.22
2018-01-29T12:29:12.781Z,101255.71
2018-01-29T12:31:38.534Z,101257.91
2018-01-29T12:34:04.276Z,101252.17
2018-01-29T12:36:30.067Z,101257.87
2018-01-29T12:38:55.988Z,101253.00
2018-01-29T12:41:21.762Z,101242.05
2018-01-29T12:43:47.523Z,101234.98
2018-01-29T12:46:13.271Z,101246.90
2018-01-29T12:48:39.220Z,101257.89
2018-01-29T12:51:04.991Z,101243.42
2018-01-29T12:53:30.751Z,101252.24
2018-01-29T12:55:56.524Z,101256.66
2018-01-29T12:58:22.292Z,101245.28
2018-01-29T13:00:48.059Z,101239.55
2018-01-29T13:03:13.819Z,101231.25
2018-01-29T13:05:39.582Z,101242.23
2018-01-29T13:08:05.331Z,101247.56
2018-01-29T13:10:31.093Z,101231.31
2018-01-29T13:12:56.852Z,101237.48
2018-01-29T13:15:22.612Z,101230.05
2018-01-29T13:17:48.380Z,101226.57
2018-01-29T13:20:14.143Z,101225.27
2018-01-29T13:22:39.891Z,101228.81
2018-01-29T13:25:05.634Z,101218.72
2018-01-29T13:27:31.399Z,101219.63
2018-01-29T13:29:57.180Z,101224.05
2018-01-29T13:32:22.946Z,101220.52
2018-01-29T13:34:48.732Z,101223.19
2018-01-29T13:37:14.520Z,101197.78
2018-01-29T13:39:40.284Z,101219.30
2018-01-29T13:42:06.059Z,101217.56
2018-01-29T13:44:31.811Z,101214.11
2018-01-29T13:46:57.583Z,101201.84
2018-01-29T13:49:23.336Z,101214.14
2018-01-29T13:51:49.103Z,101206.64
2018-01-29T13:54:14.867Z,101197.91
2018-01-29T13:56:40.623Z,101209.79
2018-01-29T13:59:06.417Z,101203.67
2018-01-29T14:01:32.187Z,101208.52
2018-01-29T14:03:57.953Z,101209.01
2018-01-29T14:06:23.779Z,101200.23
2018-01-29T14:08:49.538Z,101207.28
2018-01-29T14:11:15.327Z,101212.59
2018-01-29T14:13:41.087Z,101217.45
2018-01-29T14:16:06.854Z,101217.89
2018-01-29T14:18:32.635Z,101214.88
2018-01-29T14:20:58.393Z,101224.16
2018-01-29T14:23:24.155Z,101229.01
2018-01-29T14:25:49.967Z,101225.98
2018-01-29T14:28:15.699Z,101220.31
2018-01-29T14:30:41.472Z,101222.98
2018-01-29T14:33:07.252Z,101222.17
2018-01-29T14:35:33.009Z,101221.39
2018-01-29T14:37:58.784Z,101226.22
2018-01-29T14:40:24.544Z,101220.59
2018-01-29T14:42:50.331Z,101216.23
2018-01-29T14:45:16.086Z,101233.82
2018-01-29T14:47:41.852Z,101235.59
2018-01-29T14:50:07.635Z,101232.53
2018-01-29T14:52:33.399Z,101234.34
2018-01-29T14:54:59.176Z,101240.49
2018-01-29T14:57:24.931Z,101235.25
2018-01-29T14:59:50.704Z,101239.69
2018-01-29T15:02:16.472Z,101235.74
2018-01-29T15:04:42.245Z,101238.80
2018-01-29T15:07:08.015Z,101244.56
2018-01-29T15:09:33.771Z,101252.08
2018-01-29T15:11:59.527Z,101254.37
2018-01-29T15:14:25.307Z,101271.95
2018-01-29T15:16:51.075Z,101263.61
2018-01-29T15:19:16.857Z,101273.25
2018-01-29T15:21:42.619Z,101269.78
2018-01-29T15:24:08.403Z,101270.66
2018-01-29T15:26:34.175Z,101278.55
2018-01-29T15:28:59.932Z,101280.31
2018-01-29T15:31:25.698Z,101282.97
2018-01-29T15:33:51.455Z,101283.85
2018-01-29T15:36:17.207Z,101286.05
2018-01-29T15:38:42.943Z,101288.67
2018-01-29T15:41:08.707Z,101287.34
2018-01-29T15:43:34.459Z,101289.98
2018-01-29T15:46:00.211Z,101278.61
2018-01-29T15:48:25.960Z,101283.44
2018-01-29T15:50:51.742Z,101285.17
2018-01-29T15:53:17.518Z,101293.93
2018-01-29T15:55:43.312Z,101279.05
2018-01-29T15:58:09.054Z,101282.13
2018-01-29T16:00:34.859Z,101287.81
2018-01-29T16:03:00.607Z,101289.56
2018-01-29T16:05:26.373Z,101281.69
2018-01-29T16:07:52.146Z,101288.69
2018-01-29T16:10:18.032Z,101291.33
2018-01-29T16:12:43.855Z,101289.56
2018-01-29T16:15:09.600Z,101287.81
2018-01-29T16:17:35.360Z,101290.47
2018-01-29T16:20:01.112Z,101286.06
2018-01-29T16:22:26.871Z,101285.64
2018-01-29T16:24:52.626Z,101286.94
2018-01-29T16:27:18.394Z,101283.02
2018-01-29T16:29:44.182Z,101281.71
2018-01-29T16:32:09.951Z,101289.58
2018-01-29T16:34:35.706Z,101290.47
2018-01-29T16:37:01.471Z,101296.58
2018-01-29T16:39:27.220Z,101296.13
2018-01-29T16:41:53.040Z,101290.02
2018-01-29T16:44:18.808Z,101293.97
2018-01-29T16:46:44.567Z,101295.72
2018-01-29T16:49:10.315Z,101300.96
2018-01-29T16:51:36.092Z,101297.45
2018-01-29T16:54:01.851Z,101296.15
2018-01-29T16:56:27.654Z,101299.64
2018-01-29T16:58:53.387Z,101303.16
2018-01-29T17:01:19.164Z,101303.58
2018-01-29T17:03:44.931Z,101305.78
2018-01-29T17:06:10.695Z,101310.16
2018-01-29T17:08:36.471Z,101307.52
2018-01-29T17:11:02.220Z,101309.70
2018-01-29T17:13:27.984Z,101315.84
2018-01-29T17:15:53.747Z,101313.20
2018-01-29T17:18:19.514Z,101307.09
2018-01-29T17:20:45.276Z,101306.64
2018-01-29T17:23:11.043Z,101313.62
2018-01-29T17:25:36.827Z,101313.20
2018-01-29T17:28:02.607Z,101325.02
2018-01-29T17:30:28.403Z,101328.54
2018-01-29T17:32:54.169Z,101333.77
2018-01-29T17:35:19.927Z,101338.14
2018-01-29T17:37:45.707Z,101321.95
2018-01-29T17:40:11.463Z,101324.16
2018-01-29T17:42:37.232Z,101331.59
2018-01-29T17:45:03.022Z,101334.22
2018-01-29T17:47:28.784Z,101335.98
2018-01-29T17:49:54.563Z,101332.02
2018-01-29T17:52:20.314Z,101334.20
2018-01-29T17:54:46.090Z,101323.70
2018-01-29T17:57:11.844Z,101332.48
2018-01-29T17:59:37.607Z,101335.96
2018-01-29T18:02:03.376Z,101331.17
2018-01-29T18:04:29.168Z,101323.70
2018-01-29T18:06:54.927Z,101333.36
2018-01-29T18:09:20.720Z,101329.84
2018-01-29T18:11:46.484Z,101338.61
2018-01-29T18:14:12.272Z,101334.23
2018-01-29T18:16:38.059Z,101333.34
2018-01-29T18:19:03.839Z,101345.16
2018-01-29T18:21:29.599Z,101341.66
2018-01-29T18:23:55.359Z,101346.03
2018-01-29T18:26:21.144Z,101355.67
2018-01-29T18:28:46.943Z,101352.61
2018-01-29T18:31:12.760Z,101363.09
2018-01-29T18:33:38.528Z,101353.92
2018-01-29T18:36:04.312Z,101356.55
2018-01-29T18:38:30.084Z,101365.72
2018-01-29T18:40:55.863Z,101369.23
2018-01-29T18:43:21.644Z,101374.48
2018-01-29T18:45:47.411Z,101388.51
2018-01-29T18:48:13.180Z,101392.44
2018-01-29T18:50:38.945Z,101393.30
2018-01-29T18:53:04.755Z,101411.27
2018-01-29T18:55:30.540Z,101409.08
2018-01-29T18:57:56.319Z,101411.69
2018-01-29T19:00:22.076Z,101410.84
2018-01-29T19:02:47.847Z,101410.39
2018-01-29T19:05:13.615Z,101420.88
2018-01-29T19:07:39.395Z,101415.22
2018-01-29T19:10:05.138Z,101426.56
2018-01-29T19:12:30.891Z,101431.36
2018-01-29T19:14:56.656Z,101440.13
2018-01-29T19:17:22.426Z,101448.45
2018-01-29T19:19:48.260Z,101458.09
2018-01-29T19:22:14.027Z,101455.45
2018-01-29T19:24:39.778Z,101450.63
2018-01-29T19:27:05.550Z,101446.69
2018-01-29T19:29:31.358Z,101452.80
2018-01-29T19:31:57.100Z,101459.77
2018-01-29T19:34:22.850Z,101469.38
2018-01-29T19:36:48.758Z,101477.24
2018-01-29T19:39:14.515Z,101482.48
2018-01-29T19:41:40.282Z,101485.59
2018-01-29T19:44:06.044Z,101489.05
2018-01-29T19:46:31.811Z,101503.08
2018-01-29T19:48:57.586Z,101496.93
2018-01-29T19:51:23.332Z,101463.23
2018-01-29T19:53:49.091Z,101502.19
2018-01-29T19:56:14.847Z,101511.31
2018-01-29T19:58:40.619Z,101513.97
2018-01-29T20:01:06.399Z,101520.55
2018-01-29T20:03:32.182Z,101524.00
2018-01-29T20:05:58.114Z,101533.19
2018-01-29T20:08:23.875Z,101519.62
2018-01-29T20:10:49.631Z,101530.96
2018-01-29T20:13:15.405Z,101527.94
2018-01-29T20:15:41.171Z,101525.25
2018-01-29T20:18:06.960Z,101535.73
2018-01-29T20:20:32.724Z,101542.25
2018-01-29T20:22:58.491Z,101547.06
2018-01-29T20:25:24.258Z,101560.09
2018-01-29T20:27:50.035Z,101561.06
2018-01-29T20:30:15.871Z,101569.28
2018-01-29T20:32:41.627Z,101562.71
2018-01-29T20:35:07.402Z,101576.68
2018-01-29T20:37:33.159Z,101573.23
2018-01-29T20:39:58.931Z,101574.95
2018-01-29T20:42:24.746Z,101575.41
2018-01-29T20:44:50.503Z,101576.78
2018-01-29T20:47:16.275Z,101588.65
2018-01-29T20:49:42.038Z,101574.15
2018-01-29T20:52:07.819Z,101594.31
2018-01-29T20:54:33.579Z,101592.17
2018-01-29T20:56:59.343Z,101607.58
2018-01-29T20:59:25.128Z,101614.52
2018-01-29T21:01:50.883Z,101607.92
2018-01-29T21:04:16.652Z,101620.13
2018-01-29T21:06:42.456Z,101621.90
2018-01-29T21:09:08.182Z,101630.13
2018-01-29T21:11:33.959Z,101637.10
2018-01-29T21:13:59.727Z,101634.02
2018-01-29T21:16:25.498Z,101633.17
2018-01-29T21:18:51.247Z,101637.48
2018-01-29T21:21:16.998Z,101638.80
2018-01-29T21:23:42.751Z,101640.91
2018-01-29T21:26:08.527Z,101644.87
2018-01-29T21:28:34.279Z,101647.02
2018-01-29T21:31:00.060Z,101654.43
2018-01-29T21:33:25.810Z,101666.65
2018-01-29T21:35:51.591Z,101670.63
2018-01-29T21:38:17.352Z,101672.33
2018-01-29T21:40:43.123Z,101676.38
2018-01-29T21:43:08.888Z,101672.00
2018-01-29T21:45:34.704Z,101674.69
2018-01-29T21:48:02.105Z,101686.01
2018-01-29T21:50:27.952Z,101696.16
2018-01-29T21:52:53.716Z,101684.70
2018-01-29T21:55:19.471Z,101689.53
2018-01-29T21:57:45.251Z,101688.61
2018-01-29T22:00:11.010Z,101688.52
2018-01-29T22:02:36.869Z,101690.22
2018-01-29T22:05:02.630Z,101687.20
2018-01-29T22:07:28.556Z,101697.13
2018-01-29T22:09:54.331Z,101702.85
2018-01-29T22:12:20.095Z,101696.31
2018-01-29T22:14:45.848Z,101704.08
2018-01-29T22:17:11.621Z,101712.44
2018-01-29T22:19:37.367Z,101716.30
2018-01-29T22:22:03.112Z,101714.91
2018-01-29T22:24:28.896Z,101720.27
2018-01-29T22:26:54.811Z,101722.34
2018-01-29T22:29:20.587Z,101732.36
2018-01-29T22:31:46.350Z,101729.70
2018-01-29T22:34:12.122Z,101724.84
2018-01-29T22:36:37.894Z,101730.69
2018-01-29T22:39:03.671Z,101732.47
2018-01-29T22:41:29.423Z,101736.88
2018-01-29T22:43:55.225Z,101739.52
2018-01-29T22:46:20.979Z,101745.96
2018-01-29T22:48:46.739Z,101747.25
2018-01-29T22:51:12.503Z,101755.22
2018-01-29T22:53:38.271Z,101756.91
2018-01-29T22:56:04.042Z,101764.06
2018-01-29T22:58:29.876Z,101773.03
2018-01-29T23:00:55.645Z,101765.75
2018-01-29T23:03:21.424Z,101770.50
2018-01-29T23:05:47.183Z,101784.92
2018-01-29T23:08:13.018Z,101795.84
2018-01-29T23:10:38.860Z,101792.66
2018-01-29T23:13:04.660Z,101801.48
2018-01-29T23:15:30.584Z,101796.27
2018-01-29T23:17:56.586Z,101806.10
2018-01-29T23:20:22.461Z,101785.11
2018-01-29T23:22:48.324Z,101766.03
2018-01-29T23:25:14.104Z,101817.05
2018-01-29T23:27:39.922Z,101819.74
2018-01-29T23:30:05.700Z,101825.23
2018-01-29T23:32:31.523Z,101831.84
2018-01-29T23:34:57.541Z,101837.33
2018-01-29T23:37:23.307Z,101839.55
2018-01-29T23:39:49.071Z,101847.69
2018-01-29T23:42:14.885Z,101847.77
2018-01-29T23:44:40.650Z,101839.13
2018-01-29T23:47:06.408Z,101852.23
2018-01-29T23:49:32.178Z,101853.54
2018-01-29T23:51:58.039Z,101858.17
2018-01-29T23:54:23.807Z,101857.34
2018-01-29T23:56:49.610Z,101855.19
2018-01-29T23:59:15.579Z,101854.71
